Time;durP1;ratioP1;P1;durP2;ratioP2;P2;SDS_P1;SDS_P2;PMS_P1;PMS_P2;Temp;Humidity;BMP_temperature;BMP_pressure;BME280_temperature;BME280_humidity;BME280_pressure;Samples;Min_cycle;Max_cycle;Signal;HPM_P1;HPM_P2
2022/02/26 00:03:38;;;;;;;3.33;0.70;;;2.50;99.90;;;;;;20676289;28;20045;-44
2022/02/26 00:13:39;;;;;;;2.22;0.80;;;2.40;99.90;;;;;;20672453;28;20096;-44
2022/02/26 00:23:43;;;;;;;2.10;0.68;;;2.40;99.90;;;;;;20650447;28;20430;-44
2022/02/26 00:33:44;;;;;;;1.88;0.60;;;2.30;99.90;;;;;;20645503;28;20055;-44
2022/02/26 00:43:46;;;;;;;2.85;0.73;;;2.30;99.90;;;;;;20662429;28;20499;-44
2022/02/26 00:53:47;;;;;;;5.03;0.75;;;2.20;99.90;;;;;;20657974;28;20049;-45
2022/02/26 01:03:48;;;;;;;7.32;1.45;;;2.10;99.90;;;;;;20659842;28;20054;-44
2022/02/26 01:13:49;;;;;;;2.75;0.88;;;2.10;99.90;;;;;;20656186;28;20049;-45
2022/02/26 01:23:50;;;;;;;3.08;0.55;;;2.00;99.90;;;;;;20649330;28;20046;-45
2022/02/26 01:33:51;;;;;;;1.20;0.52;;;2.00;99.90;;;;;;20656227;28;20047;-44
2022/02/26 01:43:53;;;;;;;3.38;0.75;;;2.00;99.90;;;;;;20658715;28;20564;-44
2022/02/26 01:53:54;;;;;;;3.83;1.15;;;1.90;99.90;;;;;;20649136;28;20053;-45
2022/02/26 02:03:55;;;;;;;1.83;0.57;;;1.80;99.90;;;;;;20669750;28;20045;-44
2022/02/26 02:13:57;;;;;;;1.33;0.47;;;1.80;99.90;;;;;;20669844;28;20034;-44
2022/02/26 02:23:58;;;;;;;1.33;0.38;;;1.80;99.90;;;;;;20661309;28;20050;-44
2022/02/26 02:33:59;;;;;;;3.67;1.88;;;1.50;99.90;;;;;;20661500;28;20069;-44
2022/02/26 02:44:00;;;;;;;4.82;0.90;;;1.60;99.90;;;;;;20666833;28;20057;-44
2022/02/26 02:54:02;;;;;;;3.38;0.82;;;1.50;99.90;;;;;;20668776;28;20039;-44
2022/02/26 03:04:04;;;;;;;2.50;1.02;;;1.50;99.90;;;;;;20659513;28;20053;-44
2022/02/26 03:14:05;;;;;;;1.35;0.70;;;1.50;99.90;;;;;;20664160;28;20038;-44
2022/02/26 03:24:09;;;;;;;1.80;0.75;;;1.40;99.90;;;;;;20662143;28;20498;-44
2022/02/26 03:34:10;;;;;;;2.05;0.90;;;1.40;99.90;;;;;;20675256;28;20433;-44
2022/02/26 03:44:13;;;;;;;7.22;1.15;;;1.40;99.90;;;;;;20662892;28;20046;-44
2022/02/26 03:54:14;;;;;;;2.28;0.80;;;1.30;99.90;;;;;;20658585;28;21300;-44
2022/02/26 04:04:16;;;;;;;2.53;0.85;;;1.20;99.90;;;;;;20674008;28;20049;-44
2022/02/26 04:14:17;;;;;;;5.68;1.63;;;1.00;99.90;;;;;;20664624;28;20046;-44
2022/02/26 04:24:18;;;;;;;6.15;1.00;;;1.10;99.90;;;;;;20649061;28;20042;-45
2022/02/26 04:34:22;;;;;;;5.20;1.42;;;1.00;99.90;;;;;;20660181;28;20042;-45
2022/02/26 04:44:23;;;;;;;12.38;2.10;;;1.00;99.90;;;;;;20654333;28;20042;-44
2022/02/26 04:54:24;;;;;;;3.50;1.55;;;1.10;99.90;;;;;;20652479;28;20049;-45
2022/02/26 05:04:25;;;;;;;3.22;1.63;;;1.00;99.90;;;;;;20652949;28;20061;-45
2022/02/26 05:14:26;;;;;;;6.53;1.98;;;1.10;99.90;;;;;;20648922;28;20050;-45
2022/02/26 05:24:27;;;;;;;3.00;1.83;;;1.20;99.90;;;;;;20657838;28;20050;-45
2022/02/26 05:34:29;;;;;;;4.32;2.58;;;1.10;99.90;;;;;;20642684;28;20034;-45
2022/02/26 05:44:30;;;;;;;3.55;1.63;;;1.00;99.90;;;;;;20673149;28;20241;-45
2022/02/26 05:54:32;;;;;;;4.18;1.52;;;1.00;99.90;;;;;;20676792;28;20046;-45
2022/02/26 06:04:33;;;;;;;6.85;1.48;;;1.00;99.90;;;;;;20660528;28;20549;-45
2022/02/26 06:14:35;;;;;;;4.65;1.73;;;1.00;99.90;;;;;;20654606;28;20605;-45
2022/02/26 06:24:36;;;;;;;5.70;1.50;;;1.00;99.90;;;;;;20655965;28;20050;-45
2022/02/26 06:34:37;;;;;;;3.45;1.27;;;1.00;99.90;;;;;;20662383;28;20045;-45
2022/02/26 06:44:38;;;;;;;10.05;1.77;;;1.00;99.90;;;;;;20660586;28;20061;-45
2022/02/26 06:54:39;;;;;;;8.30;1.23;;;1.00;99.90;;;;;;20665701;28;20034;-45
2022/02/26 07:04:42;;;;;;;4.70;1.75;;;1.10;99.90;;;;;;20538134;28;77263;-45
2022/02/26 07:14:44;;;;;;;2.88;1.42;;;1.10;99.90;;;;;;20513085;28;20044;-45
2022/02/26 07:24:46;;;;;;;5.97;1.60;;;1.20;99.90;;;;;;20505669;28;20415;-45
2022/02/26 07:34:47;;;;;;;3.72;1.65;;;1.30;99.90;;;;;;20500287;28;20403;-45
2022/02/26 07:44:48;;;;;;;4.22;2.60;;;1.50;99.90;;;;;;20505488;28;20066;-45
2022/02/26 07:54:52;;;;;;;5.20;1.67;;;1.70;99.90;;;;;;20501761;28;20046;-45
2022/02/26 08:04:53;;;;;;;6.13;2.03;;;1.90;99.90;;;;;;20499541;28;20055;-45
2022/02/26 08:14:54;;;;;;;3.17;1.75;;;2.40;99.90;;;;;;20501308;28;20422;-45
2022/02/26 08:24:56;;;;;;;6.57;2.78;;;2.90;99.90;;;;;;20485865;28;20419;-45
2022/02/26 08:34:57;;;;;;;7.88;2.65;;;3.30;99.90;;;;;;20490609;28;20047;-45
2022/02/26 08:45:02;;;;;;;9.15;3.00;;;3.80;99.90;;;;;;20479904;28;20054;-45
2022/02/26 08:55:03;;;;;;;4.18;2.45;;;4.30;99.90;;;;;;20471914;28;20575;-45
2022/02/26 09:05:05;;;;;;;9.25;2.92;;;4.80;99.90;;;;;;20487075;28;20047;-46
2022/02/26 09:15:07;;;;;;;9.65;2.85;;;5.30;99.90;;;;;;20479286;28;20080;-46
2022/02/26 09:25:08;;;;;;;7.65;2.08;;;5.80;99.90;;;;;;20484291;28;20059;-46
2022/02/26 09:35:10;;;;;;;8.75;2.35;;;6.20;99.90;;;;;;20479519;28;20046;-45
2022/02/26 09:45:11;;;;;;;6.30;2.25;;;6.50;99.90;;;;;;20487033;28;20533;-46
2022/02/26 09:55:13;;;;;;;5.53;2.00;;;6.80;99.90;;;;;;20497329;28;20054;-45
2022/02/26 10:05:14;;;;;;;5.55;1.75;;;6.90;99.90;;;;;;20488904;28;20573;-45
2022/02/26 10:15:25;;;;;;;4.10;1.52;;;7.00;99.90;;;;;;20502590;28;20043;-45
2022/02/26 10:25:29;;;;;;;6.47;1.42;;;7.20;99.90;;;;;;20492388;28;20353;-45
2022/02/26 10:35:38;;;;;;;3.22;1.40;;;7.40;99.90;;;;;;20508017;28;20050;-45
2022/02/26 10:45:40;;;;;;;4.80;1.92;;;7.70;99.90;;;;;;20518116;28;20053;-45
2022/02/26 10:55:57;;;;;;;2.60;1.25;;;7.90;99.90;;;;;;20495953;28;20047;-46
2022/02/26 11:05:59;;;;;;;4.57;1.52;;;8.20;99.90;;;;;;20506392;28;20054;-46
2022/02/26 11:16:03;;;;;;;11.82;1.98;;;8.60;99.90;;;;;;20494342;28;20419;-46
2022/02/26 11:26:09;;;;;;;4.85;1.00;;;9.20;99.90;;;;;;20511181;28;20038;-46
2022/02/26 11:36:11;;;;;;;8.50;1.50;;;9.60;99.90;;;;;;20507460;28;20071;-45
2022/02/26 11:46:23;;;;;;;8.90;1.42;;;10.30;99.90;;;;;;20498582;28;20047;-45
2022/02/26 11:56:40;;;;;;;2.50;1.23;;;10.70;99.90;;;;;;20478233;28;20504;-46
2022/02/26 12:06:41;;;;;;;2.75;1.02;;;11.40;99.90;;;;;;20498308;28;20046;-45
2022/02/26 12:16:42;;;;;;;3.17;0.98;;;11.30;99.90;;;;;;20519479;28;20400;-45
2022/02/26 12:26:43;;;;;;;5.82;1.70;;;12.10;99.90;;;;;;20517536;28;20050;-45
2022/02/26 12:37:07;;;;;;;7.57;2.58;;;11.90;99.90;;;;;;20511654;28;20046;-45
2022/02/26 12:47:09;;;;;;;5.63;2.67;;;12.00;99.90;;;;;;20492113;28;20403;-46
2022/02/26 12:57:12;;;;;;;8.43;1.60;;;13.00;99.90;;;;;;20503375;28;20043;-45
2022/02/26 13:07:15;;;;;;;2.75;1.33;;;12.40;99.90;;;;;;20516326;28;20066;-45
2022/02/26 13:17:17;;;;;;;2.67;1.88;;;12.20;99.90;;;;;;20490299;28;20038;-46
2022/02/26 13:27:22;;;;;;;5.95;1.50;;;11.20;99.90;;;;;;20474005;28;20543;-45
2022/02/26 13:37:28;;;;;;;2.15;0.95;;;11.30;99.90;;;;;;20478497;28;20286;-46
2022/02/26 13:47:32;;;;;;;2.22;0.88;;;11.90;99.90;;;;;;20489185;28;20054;-45
2022/02/26 13:57:38;;;;;;;5.10;1.30;;;11.80;99.90;;;;;;20515925;28;20051;-47
2022/02/26 14:07:48;;;;;;;3.05;1.08;;;11.50;99.90;;;;;;20520169;28;20423;-47
2022/02/26 14:17:55;;;;;;;5.78;1.10;;;12.30;99.90;;;;;;20518024;28;20054;-46
2022/02/26 14:27:57;;;;;;;10.32;1.33;;;12.40;99.90;;;;;;20510244;28;20069;-44
2022/02/26 14:37:58;;;;;;;5.05;1.75;;;11.80;99.90;;;;;;20516016;28;20508;-44
2022/02/26 14:47:59;;;;;;;6.93;1.48;;;11.90;99.90;;;;;;20505119;28;20054;-44
2022/02/26 14:58:00;;;;;;;2.63;1.45;;;12.10;99.90;;;;;;20511841;28;20030;-44
2022/02/26 15:08:01;;;;;;;5.05;1.63;;;12.00;99.90;;;;;;20507113;28;20186;-44
2022/02/26 15:18:02;;;;;;;3.83;1.30;;;11.20;99.90;;;;;;20517749;28;20500;-44
2022/02/26 15:28:04;;;;;;;6.78;1.60;;;10.50;99.90;;;;;;20509871;28;20135;-44
2022/02/26 15:38:05;;;;;;;2.88;1.55;;;10.40;99.90;;;;;;20510421;28;20035;-44
2022/02/26 15:48:07;;;;;;;6.60;2.78;;;10.00;99.90;;;;;;20515711;28;20039;-44
2022/02/26 15:58:08;;;;;;;5.03;2.20;;;9.60;99.90;;;;;;20511671;28;20035;-44
2022/02/26 16:08:09;;;;;;;8.85;2.97;;;9.20;99.90;;;;;;20523941;28;20042;-44
2022/02/26 16:18:10;;;;;;;6.63;2.53;;;8.80;99.90;;;;;;20510826;28;20064;-44
2022/02/26 16:28:11;;;;;;;11.02;2.97;;;8.50;99.90;;;;;;20506621;28;20123;-44
2022/02/26 16:38:13;;;;;;;7.00;2.58;;;8.30;99.90;;;;;;20516619;28;20043;-44
2022/02/26 16:48:14;;;;;;;12.15;3.83;;;8.10;99.90;;;;;;20515021;28;20487;-44
2022/02/26 16:58:15;;;;;;;7.10;2.88;;;8.00;99.90;;;;;;20508801;28;20503;-44
2022/02/26 17:08:16;;;;;;;8.25;3.70;;;7.70;99.90;;;;;;20493290;28;20050;-44
2022/02/26 17:18:22;;;;;;;10.10;2.70;;;7.50;99.90;;;;;;20504752;28;20041;-44
2022/02/26 17:28:24;;;;;;;6.18;2.80;;;7.20;99.90;;;;;;20508626;28;20047;-44
2022/02/26 17:38:25;;;;;;;8.63;3.35;;;7.10;99.90;;;;;;20518759;28;20043;-44
2022/02/26 17:48:26;;;;;;;13.82;4.13;;;7.00;99.90;;;;;;20527475;28;20522;-44
2022/02/26 17:58:28;;;;;;;7.45;3.75;;;6.70;99.90;;;;;;20525032;28;20042;-44
2022/02/26 18:08:29;;;;;;;5.85;3.13;;;6.80;99.90;;;;;;20526249;28;21006;-44
2022/02/26 18:18:30;;;;;;;10.30;3.20;;;6.70;99.90;;;;;;20531472;28;20070;-44
2022/02/26 18:28:32;;;;;;;7.55;3.00;;;6.60;99.90;;;;;;20532029;28;20043;-44
2022/02/26 18:38:33;;;;;;;8.93;3.17;;;6.40;99.90;;;;;;20525322;28;20050;-44
2022/02/26 18:48:34;;;;;;;11.30;3.65;;;6.20;99.90;;;;;;20522437;28;20392;-44
2022/02/26 18:58:35;;;;;;;12.90;4.20;;;6.00;99.90;;;;;;20519943;28;20447;-44
2022/02/26 19:08:36;;;;;;;8.02;3.08;;;6.10;99.90;;;;;;20511491;28;20047;-44
2022/02/26 19:18:37;;;;;;;7.30;3.28;;;5.90;99.90;;;;;;20506896;28;20039;-44
2022/02/26 19:28:39;;;;;;;7.60;2.97;;;5.70;99.90;;;;;;20510753;28;20053;-44
2022/02/26 19:38:41;;;;;;;10.48;2.97;;;5.60;99.90;;;;;;20513873;28;20039;-44
2022/02/26 19:48:42;;;;;;;8.40;3.15;;;5.40;99.90;;;;;;20519606;28;20051;-44
2022/02/26 19:58:43;;;;;;;10.18;2.92;;;5.20;99.90;;;;;;20504248;28;20380;-44
2022/02/26 20:08:44;;;;;;;6.22;3.35;;;5.00;99.90;;;;;;20501051;28;20047;-44
2022/02/26 20:18:45;;;;;;;8.88;2.92;;;4.80;99.90;;;;;;20503121;28;20629;-44
2022/02/26 20:28:47;;;;;;;9.10;3.83;;;4.70;99.90;;;;;;20496684;28;20232;-44
2022/02/26 20:38:50;;;;;;;9.30;3.15;;;4.50;99.90;;;;;;20489876;28;20051;-44
2022/02/26 20:48:51;;;;;;;6.15;3.35;;;4.50;99.90;;;;;;20452565;28;20423;-44
2022/02/26 20:58:53;;;;;;;10.43;3.53;;;4.30;99.90;;;;;;20492740;28;20055;-44
2022/02/26 21:08:54;;;;;;;11.25;3.28;;;4.30;99.90;;;;;;20493895;28;20054;-44
2022/02/26 21:18:56;;;;;;;13.90;3.83;;;4.20;99.90;;;;;;20486312;28;20520;-44
2022/02/26 21:28:58;;;;;;;8.02;3.67;;;4.10;99.90;;;;;;20478805;28;20126;-44
2022/02/26 21:38:59;;;;;;;18.77;4.10;;;4.10;99.90;;;;;;20481695;28;20035;-44
2022/02/26 21:49:00;;;;;;;12.20;3.65;;;4.00;99.90;;;;;;20479860;28;20047;-44
2022/02/26 21:59:01;;;;;;;10.60;3.67;;;4.00;99.90;;;;;;20483545;28;20447;-44
2022/02/26 22:09:02;;;;;;;14.50;4.72;;;3.90;99.90;;;;;;20481112;28;22395;-44
2022/02/26 22:19:03;;;;;;;14.38;5.13;;;3.90;99.90;;;;;;20477483;28;20269;-44
2022/02/26 22:29:05;;;;;;;16.27;3.85;;;3.90;99.90;;;;;;20493855;28;20601;-44
2022/02/26 22:39:08;;;;;;;10.73;4.38;;;3.80;99.90;;;;;;20497135;28;20035;-44
2022/02/26 22:49:09;;;;;;;9.25;3.05;;;3.80;99.90;;;;;;20490001;28;20428;-44
2022/02/26 22:59:10;;;;;;;14.38;3.65;;;3.70;99.90;;;;;;20492773;28;20035;-44
2022/02/26 23:09:11;;;;;;;10.27;2.58;;;3.50;99.90;;;;;;20501328;28;20418;-44
2022/02/26 23:19:13;;;;;;;10.35;2.97;;;3.60;99.90;;;;;;20495780;28;20046;-44
2022/02/26 23:29:14;;;;;;;12.38;3.55;;;3.50;99.90;;;;;;20509436;28;20497;-44
2022/02/26 23:39:15;;;;;;;9.13;2.53;;;3.60;99.90;;;;;;20512016;28;20039;-44
2022/02/26 23:49:16;;;;;;;9.60;2.78;;;3.60;99.90;;;;;;20499117;28;20053;-44
2022/02/26 23:59:17;;;;;;;7.93;2.72;;;3.60;99.90;;;;;;20495639;28;20050;-44
